sensor_id;sensor_type;location;lat;lon;timestamp;pressure;altitude;pressure_sealevel;temperature;humidity
35647;BME280;28680;45.642;13.756;2022-09-21T00:01:18;101533.91;;;19.07;77.13
35647;BME280;28680;45.642;13.756;2022-09-21T00:03:45;101540.00;;;19.60;70.42
35647;BME280;28680;45.642;13.756;2022-09-21T00:06:17;101539.22;;;19.33;69.29
35647;BME280;28680;45.642;13.756;2022-09-21T00:08:45;101540.84;;;19.00;70.27
35647;BME280;28680;45.642;13.756;2022-09-21T00:11:14;101540.06;;;19.07;72.52
35647;BME280;28680;45.642;13.756;2022-09-21T00:13:40;101559.13;;;19.21;69.76
35647;BME280;28680;45.642;13.756;2022-09-21T00:16:08;101537.19;;;19.27;70.73
35647;BME280;28680;45.642;13.756;2022-09-21T00:18:36;101541.94;;;19.41;79.49
35647;BME280;28680;45.642;13.756;2022-09-21T00:21:07;101535.72;;;19.06;71.85
35647;BME280;28680;45.642;13.756;2022-09-21T00:23:35;101538.50;;;19.57;73.41
35647;BME280;28680;45.642;13.756;2022-09-21T00:28:34;101538.91;;;19.36;68.83
35647;BME280;28680;45.642;13.756;2022-09-21T00:31:03;101552.41;;;19.17;67.71
35647;BME280;28680;45.642;13.756;2022-09-21T00:33:29;101551.13;;;19.55;67.68
35647;BME280;28680;45.642;13.756;2022-09-21T00:36:00;101551.91;;;19.13;67.82
35647;BME280;28680;45.642;13.756;2022-09-21T00:38:26;101556.09;;;18.98;72.05
35647;BME280;28680;45.642;13.756;2022-09-21T00:40:52;101555.44;;;18.96;82.93
35647;BME280;28680;45.642;13.756;2022-09-21T00:43:18;101561.50;;;19.06;70.05
35647;BME280;28680;45.642;13.756;2022-09-21T00:45:46;101557.91;;;18.89;71.39
35647;BME280;28680;45.642;13.756;2022-09-21T00:48:14;101565.63;;;19.26;72.38
35647;BME280;28680;45.642;13.756;2022-09-21T00:50:47;101559.88;;;18.87;71.39
35647;BME280;28680;45.642;13.756;2022-09-21T00:53:14;101562.44;;;18.97;78.69
35647;BME280;28680;45.642;13.756;2022-09-21T00:55:47;101557.88;;;18.71;71.56
35647;BME280;28680;45.642;13.756;2022-09-21T00:58:21;101569.13;;;18.65;73.73
35647;BME280;28680;45.642;13.756;2022-09-21T01:00:51;101562.22;;;18.72;70.30
35647;BME280;28680;45.642;13.756;2022-09-21T01:03:18;101563.38;;;19.14;70.48
35647;BME280;28680;45.642;13.756;2022-09-21T01:05:44;101555.28;;;18.97;69.50
35647;BME280;28680;45.642;13.756;2022-09-21T01:08:11;101563.28;;;18.79;71.04
35647;BME280;28680;45.642;13.756;2022-09-21T01:11:21;101580.81;;;18.36;78.24
35647;BME280;28680;45.642;13.756;2022-09-21T01:31:23;101584.09;;;18.66;83.18
35647;BME280;28680;45.642;13.756;2022-09-21T01:33:56;101580.84;;;18.72;73.94
35647;BME280;28680;45.642;13.756;2022-09-21T01:36:27;101584.63;;;18.51;72.57
35647;BME280;28680;45.642;13.756;2022-09-21T01:39:07;101594.75;;;18.84;74.59
35647;BME280;28680;45.642;13.756;2022-09-21T01:41:36;101589.72;;;18.81;74.68
35647;BME280;28680;45.642;13.756;2022-09-21T01:44:16;101597.84;;;18.43;73.76
35647;BME280;28680;45.642;13.756;2022-09-21T01:46:45;101591.47;;;18.90;77.68
35647;BME280;28680;45.642;13.756;2022-09-21T01:49:21;101606.50;;;18.45;74.81
35647;BME280;28680;45.642;13.756;2022-09-21T01:51:54;101619.50;;;18.84;78.40
35647;BME280;28680;45.642;13.756;2022-09-21T01:54:38;101617.97;;;18.00;77.88
35647;BME280;28680;45.642;13.756;2022-09-21T01:59:59;101621.03;;;18.05;79.83
35647;BME280;28680;45.642;13.756;2022-09-21T02:02:45;101628.41;;;18.29;89.23
35647;BME280;28680;45.642;13.756;2022-09-21T02:05:15;101626.63;;;18.02;84.59
35647;BME280;28680;45.642;13.756;2022-09-21T02:07:42;101631.78;;;17.57;84.67
35647;BME280;28680;45.642;13.756;2022-09-21T02:10:23;101640.38;;;17.21;86.56
35647;BME280;28680;45.642;13.756;2022-09-21T02:12:57;101623.50;;;17.69;86.68
35647;BME280;28680;45.642;13.756;2022-09-21T02:15:36;101639.22;;;18.28;91.27
35647;BME280;28680;45.642;13.756;2022-09-21T02:19:26;101633.13;;;17.23;88.72
35647;BME280;28680;45.642;13.756;2022-09-21T02:21:30;101640.66;;;17.08;89.36
35647;BME280;28680;45.642;13.756;2022-09-21T02:28:06;101645.78;;;17.49;86.31
35647;BME280;28680;45.642;13.756;2022-09-21T02:30:13;101641.88;;;17.43;90.25
35647;BME280;28680;45.642;13.756;2022-09-21T02:36:07;101646.97;;;17.74;89.12
35647;BME280;28680;45.642;13.756;2022-09-21T02:38:52;101654.06;;;16.97;89.97
35647;BME280;28680;45.642;13.756;2022-09-21T02:41:33;101666.03;;;16.82;89.88
35647;BME280;28680;45.642;13.756;2022-09-21T02:44:20;101665.94;;;16.83;90.27
35647;BME280;28680;45.642;13.756;2022-09-21T02:46:54;101677.34;;;16.74;96.67
35647;BME280;28680;45.642;13.756;2022-09-21T02:49:29;101663.97;;;17.05;88.44
35647;BME280;28680;45.642;13.756;2022-09-21T02:51:59;101683.19;;;16.77;89.88
35647;BME280;28680;45.642;13.756;2022-09-21T02:54:30;101674.94;;;16.71;92.47
35647;BME280;28680;45.642;13.756;2022-09-21T02:56:58;101680.09;;;16.63;92.13
35647;BME280;28680;45.642;13.756;2022-09-21T02:59:26;101679.84;;;16.66;92.63
35647;BME280;28680;45.642;13.756;2022-09-21T03:01:53;101674.78;;;16.53;93.79
35647;BME280;28680;45.642;13.756;2022-09-21T03:04:21;101688.31;;;16.60;93.26
35647;BME280;28680;45.642;13.756;2022-09-21T03:06:47;101689.09;;;16.41;95.59
35647;BME280;28680;45.642;13.756;2022-09-21T03:09:13;101691.72;;;16.31;96.47
35647;BME280;28680;45.642;13.756;2022-09-21T03:11:40;101692.75;;;16.40;96.34
35647;BME280;28680;45.642;13.756;2022-09-21T03:14:08;101691.72;;;16.31;96.01
35647;BME280;28680;45.642;13.756;2022-09-21T03:16:35;101693.75;;;16.48;95.64
35647;BME280;28680;45.642;13.756;2022-09-21T03:19:01;101703.41;;;16.18;99.99
35647;BME280;28680;45.642;13.756;2022-09-21T03:21:27;101703.28;;;16.20;98.36
35647;BME280;28680;45.642;13.756;2022-09-21T03:23:54;101703.38;;;16.09;98.08
35647;BME280;28680;45.642;13.756;2022-09-21T03:26:20;101706.13;;;16.88;98.58
35647;BME280;28680;45.642;13.756;2022-09-21T03:28:50;101710.91;;;16.13;97.37
35647;BME280;28680;45.642;13.756;2022-09-21T03:31:19;101726.38;;;16.18;100.00
35647;BME280;28680;45.642;13.756;2022-09-21T03:33:45;101713.91;;;15.99;100.00
35647;BME280;28680;45.642;13.756;2022-09-21T03:36:11;101733.78;;;15.93;100.00
35647;BME280;28680;45.642;13.756;2022-09-21T03:38:38;101741.81;;;16.03;100.00
35647;BME280;28680;45.642;13.756;2022-09-21T03:41:04;101732.44;;;15.99;100.00
35647;BME280;28680;45.642;13.756;2022-09-21T03:43:31;101732.25;;;15.91;100.00
35647;BME280;28680;45.642;13.756;2022-09-21T03:45:57;101739.34;;;15.69;100.00
35647;BME280;28680;45.642;13.756;2022-09-21T03:48:23;101737.41;;;15.71;100.00
35647;BME280;28680;45.642;13.756;2022-09-21T03:50:49;101736.69;;;15.69;100.00
35647;BME280;28680;45.642;13.756;2022-09-21T03:53:16;101745.00;;;15.65;100.00
35647;BME280;28680;45.642;13.756;2022-09-21T03:55:42;101740.66;;;15.54;100.00
35647;BME280;28680;45.642;13.756;2022-09-21T03:58:08;101738.78;;;15.66;100.00
35647;BME280;28680;45.642;13.756;2022-09-21T04:00:35;101749.00;;;15.59;100.00
35647;BME280;28680;45.642;13.756;2022-09-21T04:03:01;101750.75;;;15.49;100.00
35647;BME280;28680;45.642;13.756;2022-09-21T04:05:27;101752.88;;;15.55;100.00
35647;BME280;28680;45.642;13.756;2022-09-21T04:07:54;101745.72;;;15.46;100.00
35647;BME280;28680;45.642;13.756;2022-09-21T04:10:22;101751.47;;;15.51;100.00
35647;BME280;28680;45.642;13.756;2022-09-21T04:12:59;101749.66;;;15.51;100.00
35647;BME280;28680;45.642;13.756;2022-09-21T04:15:26;101760.28;;;15.40;100.00
35647;BME280;28680;45.642;13.756;2022-09-21T04:17:54;101757.44;;;15.32;100.00
35647;BME280;28680;45.642;13.756;2022-09-21T04:20:20;101756.25;;;15.25;100.00
35647;BME280;28680;45.642;13.756;2022-09-21T04:22:46;101758.41;;;15.31;100.00
35647;BME280;28680;45.642;13.756;2022-09-21T04:25:14;101761.94;;;15.20;100.00
35647;BME280;28680;45.642;13.756;2022-09-21T04:27:40;101756.81;;;15.07;100.00
35647;BME280;28680;45.642;13.756;2022-09-21T04:30:08;101760.16;;;15.09;100.00
35647;BME280;28680;45.642;13.756;2022-09-21T04:32:34;101761.56;;;15.25;100.00
35647;BME280;28680;45.642;13.756;2022-09-21T04:35:00;101768.56;;;15.14;100.00
35647;BME280;28680;45.642;13.756;2022-09-21T04:37:26;101764.34;;;15.12;100.00
35647;BME280;28680;45.642;13.756;2022-09-21T04:39:52;101769.81;;;14.99;100.00
35647;BME280;28680;45.642;13.756;2022-09-21T04:42:18;101768.34;;;15.06;100.00
35647;BME280;28680;45.642;13.756;2022-09-21T04:44:44;101778.66;;;15.09;100.00
35647;BME280;28680;45.642;13.756;2022-09-21T04:47:10;101780.13;;;15.02;100.00
35647;BME280;28680;45.642;13.756;2022-09-21T04:49:37;101775.34;;;14.96;100.00
35647;BME280;28680;45.642;13.756;2022-09-21T04:52:03;101781.06;;;15.12;100.00
35647;BME280;28680;45.642;13.756;2022-09-21T04:54:30;101785.25;;;15.15;100.00
35647;BME280;28680;45.642;13.756;2022-09-21T04:56:56;101775.09;;;14.99;100.00
35647;BME280;28680;45.642;13.756;2022-09-21T04:59:22;101781.44;;;15.08;100.00
35647;BME280;28680;45.642;13.756;2022-09-21T05:01:48;101779.25;;;15.13;100.00
35647;BME280;28680;45.642;13.756;2022-09-21T05:04:14;101785.47;;;15.23;100.00
35647;BME280;28680;45.642;13.756;2022-09-21T05:06:40;101788.75;;;15.15;100.00
35647;BME280;28680;45.642;13.756;2022-09-21T05:09:10;101786.50;;;14.99;100.00
35647;BME280;28680;45.642;13.756;2022-09-21T05:11:55;101784.78;;;15.10;100.00
35647;BME280;28680;45.642;13.756;2022-09-21T05:14:21;101788.03;;;15.13;100.00
35647;BME280;28680;45.642;13.756;2022-09-21T05:16:46;101793.09;;;15.16;100.00
35647;BME280;28680;45.642;13.756;2022-09-21T05:19:15;101783.97;;;15.09;100.00
35647;BME280;28680;45.642;13.756;2022-09-21T05:21:41;101790.53;;;15.26;100.00
35647;BME280;28680;45.642;13.756;2022-09-21T05:24:08;101796.91;;;15.24;100.00
35647;BME280;28680;45.642;13.756;2022-09-21T05:26:34;101791.72;;;15.33;100.00
35647;BME280;28680;45.642;13.756;2022-09-21T05:29:00;101795.09;;;15.24;100.00
35647;BME280;28680;45.642;13.756;2022-09-21T05:31:44;101798.97;;;15.20;100.00
35647;BME280;28680;45.642;13.756;2022-09-21T05:39:52;101803.66;;;15.49;100.00
35647;BME280;28680;45.642;13.756;2022-09-21T05:42:18;101806.94;;;15.41;100.00
35647;BME280;28680;45.642;13.756;2022-09-21T05:44:44;101806.25;;;15.39;100.00
35647;BME280;28680;45.642;13.756;2022-09-21T05:47:54;101808.13;;;15.48;100.00
35647;BME280;28680;45.642;13.756;2022-09-21T05:59:45;101809.91;;;15.48;100.00
35647;BME280;28680;45.642;13.756;2022-09-21T06:04:44;101816.03;;;15.59;100.00
35647;BME280;28680;45.642;13.756;2022-09-21T06:07:10;101814.69;;;15.65;100.00
35647;BME280;28680;45.642;13.756;2022-09-21T06:09:36;101814.50;;;15.99;100.00
35647;BME280;28680;45.642;13.756;2022-09-21T06:12:03;101813.22;;;15.93;100.00
35647;BME280;28680;45.642;13.756;2022-09-21T06:14:30;101820.53;;;16.01;100.00
35647;BME280;28680;45.642;13.756;2022-09-21T06:16:57;101824.09;;;15.90;100.00
35647;BME280;28680;45.642;13.756;2022-09-21T06:19:23;101824.41;;;15.97;100.00
35647;BME280;28680;45.642;13.756;2022-09-21T06:21:48;101830.63;;;16.07;100.00
35647;BME280;28680;45.642;13.756;2022-09-21T06:24:14;101834.28;;;16.16;98.43
35647;BME280;28680;45.642;13.756;2022-09-21T06:26:40;101844.38;;;16.22;100.00
35647;BME280;28680;45.642;13.756;2022-09-21T06:29:07;101840.94;;;16.31;100.00
35647;BME280;28680;45.642;13.756;2022-09-21T06:31:33;101843.69;;;16.51;94.65
35647;BME280;28680;45.642;13.756;2022-09-21T06:33:59;101847.66;;;16.66;97.31
35647;BME280;28680;45.642;13.756;2022-09-21T06:36:27;101851.53;;;16.83;91.95
35647;BME280;28680;45.642;13.756;2022-09-21T06:38:53;101862.06;;;17.04;96.49
35647;BME280;28680;45.642;13.756;2022-09-21T06:41:18;101850.25;;;17.28;89.51
35647;BME280;28680;45.642;13.756;2022-09-21T06:43:44;101856.41;;;17.38;90.23
35647;BME280;28680;45.642;13.756;2022-09-21T06:46:10;101862.03;;;17.54;84.47
35647;BME280;28680;45.642;13.756;2022-09-21T06:48:36;101853.94;;;17.66;84.26
35647;BME280;28680;45.642;13.756;2022-09-21T06:51:04;101858.94;;;17.40;84.70
35647;BME280;28680;45.642;13.756;2022-09-21T06:53:32;101858.81;;;17.51;85.85
35647;BME280;28680;45.642;13.756;2022-09-21T06:56:03;101869.59;;;17.98;91.75
35647;BME280;28680;45.642;13.756;2022-09-21T06:58:31;101858.25;;;17.77;83.68
35647;BME280;28680;45.642;13.756;2022-09-21T07:01:06;101864.69;;;17.93;82.62
35647;BME280;28680;45.642;13.756;2022-09-21T07:03:33;101863.53;;;18.25;83.13
35647;BME280;28680;45.642;13.756;2022-09-21T07:05:59;101858.56;;;18.50;82.43
35647;BME280;28680;45.642;13.756;2022-09-21T07:08:25;101858.47;;;18.79;79.29
35647;BME280;28680;45.642;13.756;2022-09-21T07:10:52;101858.69;;;18.96;75.45
35647;BME280;28680;45.642;13.756;2022-09-21T07:13:18;101863.25;;;19.03;74.82
35647;BME280;28680;45.642;13.756;2022-09-21T07:15:44;101863.22;;;18.85;73.61
35647;BME280;28680;45.642;13.756;2022-09-21T07:18:12;101864.22;;;19.12;72.75
35647;BME280;28680;45.642;13.756;2022-09-21T07:20:44;101862.75;;;19.45;71.31
35647;BME280;28680;45.642;13.756;2022-09-21T07:23:16;101866.06;;;19.65;68.11
35647;BME280;28680;45.642;13.756;2022-09-21T07:25:47;101869.69;;;19.74;67.99
35647;BME280;28680;45.642;13.756;2022-09-21T07:28:14;101861.31;;;19.87;66.98
35647;BME280;28680;45.642;13.756;2022-09-21T07:30:41;101865.94;;;20.03;68.06
35647;BME280;28680;45.642;13.756;2022-09-21T07:33:07;101867.91;;;20.19;68.01
35647;BME280;28680;45.642;13.756;2022-09-21T07:35:33;101867.81;;;20.37;67.08
35647;BME280;28680;45.642;13.756;2022-09-21T07:38:02;101855.97;;;20.31;62.56
35647;BME280;28680;45.642;13.756;2022-09-21T07:40:29;101862.34;;;20.38;63.47
35647;BME280;28680;45.642;13.756;2022-09-21T07:43:07;101867.34;;;20.68;66.18
35647;BME280;28680;45.642;13.756;2022-09-21T07:45:32;101864.94;;;20.82;60.58
35647;BME280;28680;45.642;13.756;2022-09-21T07:48:03;101865.47;;;20.60;60.77
35647;BME280;28680;45.642;13.756;2022-09-21T07:50:30;101867.03;;;20.62;60.21
35647;BME280;28680;45.642;13.756;2022-09-21T07:52:58;101861.50;;;20.98;64.64
35647;BME280;28680;45.642;13.756;2022-09-21T07:55:26;101868.22;;;21.19;67.85
35647;BME280;28680;45.642;13.756;2022-09-21T07:57:51;101872.09;;;21.33;72.39
35647;BME280;28680;45.642;13.756;2022-09-21T08:00:36;101867.97;;;21.47;61.21
35647;BME280;28680;45.642;13.756;2022-09-21T08:03:04;101883.84;;;21.56;57.67
35647;BME280;28680;45.642;13.756;2022-09-21T08:05:31;101880.69;;;21.77;56.53
35647;BME280;28680;45.642;13.756;2022-09-21T08:07:58;101883.56;;;21.76;57.69
35647;BME280;28680;45.642;13.756;2022-09-21T08:10:25;101884.06;;;21.88;58.30
35647;BME280;28680;45.642;13.756;2022-09-21T08:12:53;101889.91;;;21.99;56.53
35647;BME280;28680;45.642;13.756;2022-09-21T08:15:19;101893.72;;;22.05;52.72
35647;BME280;28680;45.642;13.756;2022-09-21T08:17:47;101886.72;;;22.12;55.64
35647;BME280;28680;45.642;13.756;2022-09-21T08:20:18;101885.88;;;22.12;55.69
35647;BME280;28680;45.642;13.756;2022-09-21T08:22:44;101878.88;;;21.78;47.98
35647;BME280;28680;45.642;13.756;2022-09-21T08:25:10;101881.53;;;21.70;49.41
35647;BME280;28680;45.642;13.756;2022-09-21T08:27:36;101883.56;;;22.00;51.89
35647;BME280;28680;45.642;13.756;2022-09-21T08:30:03;101889.41;;;22.29;50.52
35647;BME280;28680;45.642;13.756;2022-09-21T08:32:30;101884.84;;;22.54;52.09
35647;BME280;28680;45.642;13.756;2022-09-21T08:34:56;101887.75;;;22.84;47.16
35647;BME280;28680;45.642;13.756;2022-09-21T08:37:22;101881.66;;;22.98;47.70
35647;BME280;28680;45.642;13.756;2022-09-21T08:39:48;101889.81;;;23.13;48.63
35647;BME280;28680;45.642;13.756;2022-09-21T08:45:03;101891.06;;;23.33;49.67
35647;BME280;28680;45.642;13.756;2022-09-21T08:47:57;101886.00;;;23.39;49.60
35647;BME280;28680;45.642;13.756;2022-09-21T08:53:47;101881.22;;;23.72;44.70
35647;BME280;28680;45.642;13.756;2022-09-21T08:56:13;101885.38;;;23.83;47.14
35647;BME280;28680;45.642;13.756;2022-09-21T08:59:30;101884.16;;;24.08;46.01
35647;BME280;28680;45.642;13.756;2022-09-21T09:11:27;101885.69;;;24.41;47.15
35647;BME280;28680;45.642;13.756;2022-09-21T09:20:20;101872.84;;;24.81;42.79
35647;BME280;28680;45.642;13.756;2022-09-21T09:23:33;101870.59;;;24.99;44.36
35647;BME280;28680;45.642;13.756;2022-09-21T09:26:35;101864.59;;;25.19;41.16
35647;BME280;28680;45.642;13.756;2022-09-21T09:31:46;101856.84;;;25.24;45.44
35647;BME280;28680;45.642;13.756;2022-09-21T09:34:35;101862.16;;;25.60;41.04
35647;BME280;28680;45.642;13.756;2022-09-21T09:37:15;101859.84;;;25.36;44.34
35647;BME280;28680;45.642;13.756;2022-09-21T09:39:44;101849.72;;;25.16;44.45
35647;BME280;28680;45.642;13.756;2022-09-21T09:50:41;101847.81;;;25.53;40.96
35647;BME280;28680;45.642;13.756;2022-09-21T09:53:13;101844.72;;;25.78;38.91
35647;BME280;28680;45.642;13.756;2022-09-21T09:55:51;101856.72;;;25.75;41.00
35647;BME280;28680;45.642;13.756;2022-09-21T10:00:54;101853.88;;;25.83;41.77
35647;BME280;28680;45.642;13.756;2022-09-21T10:03:30;101848.28;;;25.57;41.50
35647;BME280;28680;45.642;13.756;2022-09-21T10:05:56;101853.38;;;25.73;41.87
35647;BME280;28680;45.642;13.756;2022-09-21T10:11:11;101842.56;;;26.16;38.02
35647;BME280;28680;45.642;13.756;2022-09-21T10:13:46;101841.84;;;26.36;38.37
35647;BME280;28680;45.642;13.756;2022-09-21T10:16:21;101835.75;;;26.55;38.63
35647;BME280;28680;45.642;13.756;2022-09-21T10:18:58;101837.38;;;26.91;37.97
35647;BME280;28680;45.642;13.756;2022-09-21T10:21:33;101833.19;;;26.75;40.17
35647;BME280;28680;45.642;13.756;2022-09-21T10:24:22;101833.63;;;26.86;38.70
35647;BME280;28680;45.642;13.756;2022-09-21T10:34:40;101830.00;;;26.65;39.50
35647;BME280;28680;45.642;13.756;2022-09-21T10:37:33;101826.25;;;26.59;40.43
35647;BME280;28680;45.642;13.756;2022-09-21T10:40:03;101825.09;;;26.82;40.15
35647;BME280;28680;45.642;13.756;2022-09-21T10:42:41;101826.88;;;27.23;38.01
35647;BME280;28680;45.642;13.756;2022-09-21T10:47:53;101824.91;;;26.77;39.67
35647;BME280;28680;45.642;13.756;2022-09-21T10:53:20;101818.22;;;27.61;37.89
35647;BME280;28680;45.642;13.756;2022-09-21T10:56:23;101821.34;;;27.65;37.96
35647;BME280;28680;45.642;13.756;2022-09-21T11:01:35;101819.06;;;27.68;37.66
35647;BME280;28680;45.642;13.756;2022-09-21T11:04:10;101822.97;;;28.19;33.44
35647;BME280;28680;45.642;13.756;2022-09-21T11:06:45;101820.50;;;28.04;36.13
35647;BME280;28680;45.642;13.756;2022-09-21T11:20:38;101821.75;;;27.68;36.29
35647;BME280;28680;45.642;13.756;2022-09-21T11:26:29;101813.03;;;28.78;34.16
35647;BME280;28680;45.642;13.756;2022-09-21T11:29:08;101820.31;;;28.71;34.81
35647;BME280;28680;45.642;13.756;2022-09-21T11:46:45;101808.38;;;28.92;33.75
35647;BME280;28680;45.642;13.756;2022-09-21T11:52:52;101810.13;;;29.11;32.14
35647;BME280;28680;45.642;13.756;2022-09-21T11:58:36;101801.16;;;29.74;32.39
35647;BME280;28680;45.642;13.756;2022-09-21T12:12:37;101804.91;;;30.17;32.90
35647;BME280;28680;45.642;13.756;2022-09-21T12:15:16;101802.06;;;30.79;29.67
35647;BME280;28680;45.642;13.756;2022-09-21T12:21:21;101790.16;;;30.99;30.87
35647;BME280;28680;45.642;13.756;2022-09-21T12:24:04;101786.81;;;31.39;29.04
35647;BME280;28680;45.642;13.756;2022-09-21T12:26:45;101790.84;;;31.72;29.70
35647;BME280;28680;45.642;13.756;2022-09-21T12:29:26;101779.66;;;31.56;30.07
35647;BME280;28680;45.642;13.756;2022-09-21T12:31:58;101778.13;;;31.48;29.95
35647;BME280;28680;45.642;13.756;2022-09-21T12:34:40;101786.53;;;31.28;32.31
35647;BME280;28680;45.642;13.756;2022-09-21T12:37:33;101777.44;;;31.11;31.89
35647;BME280;28680;45.642;13.756;2022-09-21T12:42:40;101780.88;;;31.30;29.99
35647;BME280;28680;45.642;13.756;2022-09-21T12:45:28;101776.56;;;31.53;29.13
35647;BME280;28680;45.642;13.756;2022-09-21T12:48:33;101776.41;;;31.36;31.94
35647;BME280;28680;45.642;13.756;2022-09-21T12:53:34;101777.66;;;30.98;34.15
35647;BME280;28680;45.642;13.756;2022-09-21T12:56:39;101775.22;;;31.20;32.43
35647;BME280;28680;45.642;13.756;2022-09-21T13:02:02;101771.72;;;31.31;31.73
35647;BME280;28680;45.642;13.756;2022-09-21T13:08:02;101767.34;;;32.13;29.90
35647;BME280;28680;45.642;13.756;2022-09-21T13:16:05;101763.47;;;31.97;30.71
35647;BME280;28680;45.642;13.756;2022-09-21T13:18:37;101756.84;;;32.57;26.83
35647;BME280;28680;45.642;13.756;2022-09-21T13:21:19;101760.66;;;32.03;32.17
35647;BME280;28680;45.642;13.756;2022-09-21T13:24:03;101751.41;;;32.57;26.29
35647;BME280;28680;45.642;13.756;2022-09-21T13:29:29;101748.00;;;31.97;32.47
35647;BME280;28680;45.642;13.756;2022-09-21T13:32:02;101746.56;;;31.95;31.10
35647;BME280;28680;45.642;13.756;2022-09-21T13:34:37;101744.59;;;32.42;27.77
35647;BME280;28680;45.642;13.756;2022-09-21T13:37:28;101749.63;;;32.79;28.67
35647;BME280;28680;45.642;13.756;2022-09-21T13:47:56;101741.75;;;31.97;31.80
35647;BME280;28680;45.642;13.756;2022-09-21T13:50:41;101736.16;;;32.27;30.00
35647;BME280;28680;45.642;13.756;2022-09-21T13:53:22;101725.66;;;32.19;31.47
35647;BME280;28680;45.642;13.756;2022-09-21T13:55:58;101738.19;;;31.96;32.13
35647;BME280;28680;45.642;13.756;2022-09-21T13:58:32;101731.16;;;31.83;31.81
35647;BME280;28680;45.642;13.756;2022-09-21T14:01:40;101731.38;;;31.94;31.31
35647;BME280;28680;45.642;13.756;2022-09-21T14:04:28;101736.47;;;32.31;30.19
35647;BME280;28680;45.642;13.756;2022-09-21T14:06:56;101730.44;;;32.40;29.48
35647;BME280;28680;45.642;13.756;2022-09-21T14:09:30;101729.91;;;32.15;31.61
35647;BME280;28680;45.642;13.756;2022-09-21T14:12:02;101727.31;;;32.49;28.88
35647;BME280;28680;45.642;13.756;2022-09-21T14:14:35;101736.56;;;32.36;30.72
35647;BME280;28680;45.642;13.756;2022-09-21T14:17:04;101725.31;;;32.15;31.56
35647;BME280;28680;45.642;13.756;2022-09-21T14:25:45;101725.03;;;33.03;25.89
35647;BME280;28680;45.642;13.756;2022-09-21T14:28:13;101724.59;;;32.94;26.55
35647;BME280;28680;45.642;13.756;2022-09-21T14:30:50;101725.50;;;33.00;27.78
35647;BME280;28680;45.642;13.756;2022-09-21T14:35:52;101726.00;;;32.80;29.05
35647;BME280;28680;45.642;13.756;2022-09-21T14:38:30;101717.66;;;32.70;30.72
35647;BME280;28680;45.642;13.756;2022-09-21T14:41:04;101719.13;;;32.60;28.37
35647;BME280;28680;45.642;13.756;2022-09-21T14:43:36;101717.25;;;32.78;27.39
35647;BME280;28680;45.642;13.756;2022-09-21T14:46:32;101710.03;;;32.55;29.94
35647;BME280;28680;45.642;13.756;2022-09-21T14:55:42;101710.53;;;32.52;28.19
35647;BME280;28680;45.642;13.756;2022-09-21T15:01:38;101700.34;;;32.59;27.12
35647;BME280;28680;45.642;13.756;2022-09-21T15:07:46;101690.16;;;32.09;27.01
35647;BME280;28680;45.642;13.756;2022-09-21T15:11:35;101704.50;;;32.21;27.21
35647;BME280;28680;45.642;13.756;2022-09-21T15:16:47;101701.25;;;32.07;27.21
35647;BME280;28680;45.642;13.756;2022-09-21T15:21:49;101697.25;;;31.98;27.38
35647;BME280;28680;45.642;13.756;2022-09-21T15:24:36;101699.16;;;30.91;28.10
35647;BME280;28680;45.642;13.756;2022-09-21T15:27:14;101696.94;;;30.69;28.11
35647;BME280;28680;45.642;13.756;2022-09-21T15:29:47;101704.22;;;30.08;28.64
35647;BME280;28680;45.642;13.756;2022-09-21T15:32:39;101707.16;;;28.94;29.55
35647;BME280;28680;45.642;13.756;2022-09-21T15:35:22;101706.19;;;28.44;30.44
35647;BME280;28680;45.642;13.756;2022-09-21T15:37:50;101700.94;;;28.10;30.69
35647;BME280;28680;45.642;13.756;2022-09-21T15:40:24;101696.41;;;27.97;30.78
35647;BME280;28680;45.642;13.756;2022-09-21T15:43:15;101705.84;;;27.55;31.96
35647;BME280;28680;45.642;13.756;2022-09-21T15:46:04;101705.38;;;26.91;32.67
35647;BME280;28680;45.642;13.756;2022-09-21T15:48:34;101707.06;;;27.12;32.35
35647;BME280;28680;45.642;13.756;2022-09-21T15:51:12;101705.97;;;27.80;32.27
35647;BME280;28680;45.642;13.756;2022-09-21T15:53:47;101699.97;;;27.98;32.00
35647;BME280;28680;45.642;13.756;2022-09-21T15:56:24;101715.59;;;28.28;30.94
35647;BME280;28680;45.642;13.756;2022-09-21T15:58:58;101714.97;;;28.77;31.87
35647;BME280;28680;45.642;13.756;2022-09-21T16:01:28;101721.50;;;28.05;32.18
35647;BME280;28680;45.642;13.756;2022-09-21T16:04:07;101717.31;;;28.15;31.57
35647;BME280;28680;45.642;13.756;2022-09-21T16:06:40;101718.16;;;28.16;31.61
35647;BME280;28680;45.642;13.756;2022-09-21T16:11:52;101725.66;;;28.00;32.95
35647;BME280;28680;45.642;13.756;2022-09-21T16:14:19;101719.00;;;28.03;32.74
35647;BME280;28680;45.642;13.756;2022-09-21T16:22:41;101733.44;;;27.30;34.05
35647;BME280;28680;45.642;13.756;2022-09-21T16:25:31;101727.97;;;26.83;35.26
35647;BME280;28680;45.642;13.756;2022-09-21T16:30:46;101733.22;;;26.50;35.12
35647;BME280;28680;45.642;13.756;2022-09-21T16:38:43;101743.50;;;25.63;36.25
35647;BME280;28680;45.642;13.756;2022-09-21T16:41:12;101738.72;;;26.29;35.81
35647;BME280;28680;45.642;13.756;2022-09-21T16:43:39;101741.13;;;26.10;36.04
35647;BME280;28680;45.642;13.756;2022-09-21T16:46:09;101751.97;;;25.67;37.27
35647;BME280;28680;45.642;13.756;2022-09-21T16:48:35;101744.41;;;25.06;37.42
35647;BME280;28680;45.642;13.756;2022-09-21T16:51:01;101744.28;;;24.93;38.05